Time;durP1;ratioP1;P1;durP2;ratioP2;P2;SDS_P1;SDS_P2;PMS_P1;PMS_P2;Temp;Humidity;BMP_temperature;BMP_pressure;BME280_temperature;BME280_humidity;BME280_pressure;Samples;Min_cycle;Max_cycle;Signal;HPM_P1;HPM_P2
2023/04/20 00:01:43;;;;;;;3.78;2.03;;;;;;;-148.88;58.36;76764.53;5096331;28;20109;-81
2023/04/20 00:04:08;;;;;;;5.60;2.72;;;;;;;-148.88;59.18;76760.44;5095940;28;20071;-81
2023/04/20 00:06:33;;;;;;;4.75;2.33;;;;;;;-148.88;60.03;76764.53;5095350;28;20036;-81
2023/04/20 00:09:00;;;;;;;4.90;2.75;;;;;;;-148.88;61.95;76768.59;5093815;28;20077;-81
2023/04/20 00:11:26;;;;;;;6.85;2.83;;;;;;;-148.88;61.49;76768.59;5095450;28;20020;-81
2023/04/20 00:13:52;;;;;;;8.68;4.00;;;;;;;-148.88;61.84;76760.44;5095774;28;20559;-81
2023/04/20 00:16:17;;;;;;;5.57;2.50;;;;;;;-148.88;62.74;76760.44;5094504;28;20024;-81
2023/04/20 00:18:45;;;;;;;6.50;2.80;;;;;;;-148.88;62.47;76760.44;5095305;28;20053;-81
2023/04/20 00:21:10;;;;;;;8.07;3.33;;;;;;;-148.88;64.00;76760.44;5093412;28;20020;-81
2023/04/20 00:23:36;;;;;;;4.65;2.63;;;;;;;-148.88;63.90;76756.41;5095457;28;20020;-81
2023/04/20 00:26:01;;;;;;;7.07;2.67;;;;;;;-148.88;65.54;76760.44;5096506;28;20093;-81
2023/04/20 00:28:26;;;;;;;7.82;2.95;;;;;;;-148.88;65.44;76764.53;5096965;28;20020;-81
2023/04/20 00:30:52;;;;;;;7.60;4.15;;;;;;;-148.88;66.31;76766.56;5097410;28;20390;-81
2023/04/20 00:33:17;;;;;;;6.35;3.15;;;;;;;-148.88;67.44;76780.78;5097247;28;20020;-81
2023/04/20 00:35:42;;;;;;;8.70;2.88;;;;;;;-148.88;69.20;76780.78;5097088;28;20071;-81
2023/04/20 00:38:07;;;;;;;6.80;2.75;;;;;;;-148.88;70.06;76788.91;5097637;28;20032;-81
2023/04/20 00:40:34;;;;;;;10.55;3.45;;;;;;;-148.88;72.27;76801.09;5097749;28;20048;-81
2023/04/20 00:43:09;;;;;;;8.13;3.10;;;;;;;-148.88;74.55;76811.25;5096025;28;20023;-81
2023/04/20 00:45:34;;;;;;;5.60;2.97;;;;;;;-148.88;75.43;76817.34;5092258;28;20028;-81
2023/04/20 00:47:59;;;;;;;6.47;2.97;;;;;;;-148.88;77.03;76833.59;5097092;28;20030;-81
2023/04/20 00:50:25;;;;;;;6.68;3.30;;;;;;;-148.88;76.98;76839.69;5097062;28;20024;-81
2023/04/20 00:52:50;;;;;;;7.13;2.75;;;;;;;-148.88;78.02;76845.78;5095974;28;20031;-81
2023/04/20 00:55:18;;;;;;;7.10;3.03;;;;;;;-148.88;79.17;76851.88;5097358;28;20020;-81
2023/04/20 00:57:43;;;;;;;5.47;2.55;;;;;;;-148.88;79.14;76849.84;5097020;28;20114;-81
2023/04/20 01:00:09;;;;;;;7.55;3.03;;;;;;;-148.88;79.84;76862.03;5097556;28;20069;-81
2023/04/20 01:02:35;;;;;;;7.15;2.72;;;;;;;-148.88;79.26;76857.97;5097512;28;20028;-81
2023/04/20 01:05:00;;;;;;;4.70;2.67;;;;;;;-148.88;79.55;76853.91;5096439;28;20024;-81
2023/04/20 01:07:25;;;;;;;5.88;2.92;;;;;;;-148.88;79.59;76845.78;5097900;28;20028;-81
2023/04/20 01:09:51;;;;;;;6.68;3.03;;;;;;;-148.88;79.18;76851.88;5098345;28;20023;-81
2023/04/20 01:12:16;;;;;;;6.75;3.45;;;;;;;-148.88;78.75;76853.91;5096768;28;20106;-81
2023/04/20 01:14:41;;;;;;;6.07;3.03;;;;;;;-148.88;79.16;76849.84;5098282;28;20020;-81
2023/04/20 01:17:07;;;;;;;6.45;2.78;;;;;;;-148.88;80.00;76849.84;5098426;28;20070;-81
2023/04/20 01:19:32;;;;;;;8.15;2.88;;;;;;;-148.88;79.76;76847.81;5096592;28;20024;-81
2023/04/20 01:21:58;;;;;;;6.63;2.83;;;;;;;-148.88;79.90;76837.66;5097266;28;20106;-81
2023/04/20 01:24:23;;;;;;;6.97;3.05;;;;;;;-148.88;79.86;76837.66;5096221;28;20016;-81
2023/04/20 01:26:48;;;;;;;5.40;3.05;;;;;;;-148.88;80.40;76841.72;5096689;28;20050;-81
2023/04/20 01:29:13;;;;;;;5.22;2.42;;;;;;;-148.88;80.43;76845.78;5097893;28;20055;-82
2023/04/20 01:31:39;;;;;;;7.68;4.55;;;;;;;-148.88;80.43;76837.66;5096819;28;20024;-81
2023/04/20 01:34:04;;;;;;;5.07;2.90;;;;;;;-148.88;80.80;76841.72;5093394;28;20099;-81
2023/04/20 01:36:30;;;;;;;5.38;3.45;;;;;;;-148.88;80.67;76835.63;5092471;28;20012;-81
2023/04/20 01:38:55;;;;;;;5.03;2.65;;;;;;;-148.88;81.53;76833.59;5092882;28;20028;-81
2023/04/20 01:41:20;;;;;;;6.22;3.08;;;;;;;-148.88;81.44;76835.63;5093188;28;20102;-81
2023/04/20 01:43:45;;;;;;;6.43;3.33;;;;;;;-148.88;81.31;76837.66;5094959;28;20424;-81
2023/04/20 01:46:11;;;;;;;5.57;2.67;;;;;;;-148.88;81.23;76833.59;5096415;28;20016;-81
2023/04/20 01:48:36;;;;;;;7.40;2.83;;;;;;;-148.88;80.67;76837.66;5096738;28;20073;-81
2023/04/20 01:51:01;;;;;;;8.07;2.67;;;;;;;-148.88;81.17;76837.66;5096602;28;20016;-81
2023/04/20 01:53:27;;;;;;;6.20;2.60;;;;;;;-148.88;81.71;76835.63;5095503;28;20028;-81
2023/04/20 01:55:54;;;;;;;9.10;3.33;;;;;;;-148.88;82.20;76829.53;5095382;28;20021;-81
2023/04/20 01:58:19;;;;;;;9.02;3.38;;;;;;;-148.88;81.57;76841.72;5097659;28;20372;-81
2023/04/20 02:00:46;;;;;;;6.82;2.83;;;;;;;-148.88;81.83;76837.66;5094954;28;20497;-82
2023/04/20 02:03:12;;;;;;;6.85;4.13;;;;;;;-148.88;81.72;76829.53;5096402;28;20030;-82
2023/04/20 02:05:37;;;;;;;8.43;2.70;;;;;;;-148.88;81.74;76847.81;5097752;28;20111;-82
2023/04/20 02:08:03;;;;;;;5.18;2.80;;;;;;;-148.88;82.12;76849.84;5096427;28;20040;-81
2023/04/20 02:10:28;;;;;;;7.28;3.25;;;;;;;-148.88;82.61;76841.72;5097805;28;20113;-81
2023/04/20 02:12:53;;;;;;;6.93;2.53;;;;;;;-148.88;82.80;76837.66;5096625;28;20031;-81
2023/04/20 02:15:19;;;;;;;6.68;3.42;;;;;;;-148.88;82.74;76821.41;5096726;28;20026;-81
2023/04/20 02:17:45;;;;;;;5.85;3.20;;;;;;;-148.88;82.35;76817.34;5096036;28;20133;-81
2023/04/20 02:20:11;;;;;;;6.90;2.75;;;;;;;-148.88;83.55;76821.41;5097520;28;20028;-81
2023/04/20 02:22:37;;;;;;;5.68;2.55;;;;;;;-148.88;84.53;76829.53;5097368;28;20020;-81
2023/04/20 02:25:04;;;;;;;4.55;2.55;;;;;;;-148.88;86.38;76845.78;5097248;28;20477;-81
2023/04/20 02:27:31;;;;;;;4.55;2.60;;;;;;;-148.88;87.31;76853.91;5097340;28;20049;-82
2023/04/20 02:29:56;;;;;;;5.38;2.95;;;;;;;-148.88;87.86;76853.91;5097178;28;20046;-82
2023/04/20 02:32:22;;;;;;;5.45;2.60;;;;;;;-148.88;88.79;76853.91;5098582;28;20382;-81
2023/04/20 02:34:47;;;;;;;5.90;3.25;;;;;;;-148.88;89.85;76882.34;5097829;28;20161;-81
2023/04/20 02:37:13;;;;;;;6.68;2.60;;;;;;;-148.88;90.24;76870.16;5094401;28;20012;-81
2023/04/20 02:39:38;;;;;;;5.45;2.42;;;;;;;-148.88;90.54;76868.13;5094125;28;20034;-81
2023/04/20 02:42:04;;;;;;;4.90;2.92;;;;;;;-148.88;91.31;76882.34;5095714;28;20113;-81
2023/04/20 02:44:30;;;;;;;5.88;3.05;;;;;;;-148.88;91.52;76872.19;5096100;28;20102;-81
2023/04/20 02:46:55;;;;;;;6.63;2.97;;;;;;;-148.88;91.82;76860.00;5095544;28;20062;-81
2023/04/20 02:49:20;;;;;;;4.15;2.55;;;;;;;-148.88;91.78;76857.97;5096933;28;20032;-81
2023/04/20 02:51:45;;;;;;;7.68;3.13;;;;;;;-148.88;91.37;76853.91;5097029;28;20077;-81
2023/04/20 02:54:11;;;;;;;4.80;2.53;;;;;;;-148.88;91.49;76855.94;5096035;28;20079;-81
2023/04/20 02:56:36;;;;;;;4.18;2.50;;;;;;;-148.88;91.90;76857.97;5095640;28;20012;-81
2023/04/20 02:59:02;;;;;;;6.38;2.70;;;;;;;-148.88;91.09;76837.66;5096452;28;20068;-81
2023/04/20 03:01:27;;;;;;;8.13;2.70;;;;;;;-148.88;91.56;76839.69;5095325;28;20023;-81
2023/04/20 03:03:52;;;;;;;4.75;2.17;;;;;;;-148.88;91.68;76835.63;5096506;28;20066;-81
2023/04/20 03:06:17;;;;;;;6.88;2.35;;;;;;;-148.88;91.20;76833.59;5094808;28;20127;-81
2023/04/20 03:08:43;;;;;;;4.68;2.50;;;;;;;-148.88;93.55;76882.34;5094238;28;20027;-82
2023/04/20 03:11:08;;;;;;;6.30;2.80;;;;;;;-148.88;94.90;76894.56;5094092;28;20156;-82
2023/04/20 03:13:33;;;;;;;5.82;2.85;;;;;;;-148.88;94.22;76866.09;5092717;28;20119;-81
2023/04/20 03:15:59;;;;;;;7.38;2.72;;;;;;;-148.88;95.53;76908.78;5092611;28;20401;-81
2023/04/20 03:18:24;;;;;;;7.43;3.10;;;;;;;-148.88;96.52;76910.81;5094272;28;20451;-81
2023/04/20 03:20:49;;;;;;;7.78;3.17;;;;;;;-148.88;96.93;76912.84;5094312;28;20459;-81
2023/04/20 03:23:15;;;;;;;6.20;3.33;;;;;;;-148.88;97.16;76910.81;5093975;28;20367;-81
2023/04/20 03:25:40;;;;;;;4.80;2.58;;;;;;;-148.88;97.35;76906.75;5093832;28;20043;-81
2023/04/20 03:28:05;;;;;;;6.47;2.80;;;;;;;-148.88;97.41;76910.81;5094172;28;20090;-81
2023/04/20 03:30:31;;;;;;;7.22;2.67;;;;;;;-148.88;97.34;76920.97;5094047;28;20035;-81
2023/04/20 03:32:56;;;;;;;5.18;2.70;;;;;;;-148.88;98.30;76910.81;5092838;28;20030;-81
2023/04/20 03:35:21;;;;;;;5.22;2.97;;;;;;;-148.88;98.18;76914.88;5094155;28;20111;-81
2023/04/20 03:37:46;;;;;;;6.95;2.53;;;;;;;-148.88;98.36;76918.94;5094621;28;20032;-82
2023/04/20 03:40:13;;;;;;;4.85;2.58;;;;;;;-148.88;98.38;76920.97;5095579;28;20048;-82
2023/04/20 03:42:38;;;;;;;6.32;2.88;;;;;;;-148.88;98.59;76931.13;5094506;28;20034;-81
2023/04/20 03:45:05;;;;;;;8.13;3.20;;;;;;;-148.88;98.89;76918.94;5097326;28;20048;-81
2023/04/20 03:47:30;;;;;;;9.57;2.80;;;;;;;-148.88;98.66;76931.13;5100130;28;20032;-80
2023/04/20 03:49:55;;;;;;;8.43;2.67;;;;;;;-148.88;99.67;76935.19;5092496;28;20023;-80
2023/04/20 03:52:21;;;;;;;8.05;2.90;;;;;;;-148.88;100.00;76931.13;5093970;28;20073;-80
2023/04/20 03:54:46;;;;;;;8.13;2.95;;;;;;;-148.88;99.81;76927.06;5093830;28;20446;-80
2023/04/20 03:57:12;;;;;;;6.82;2.92;;;;;;;-148.88;100.00;76918.94;5094470;28;20545;-80
2023/04/20 03:59:37;;;;;;;6.07;3.05;;;;;;;-148.88;100.00;76918.94;5094420;28;20039;-81
2023/04/20 04:02:04;;;;;;;10.65;3.25;;;;;;;-148.88;100.00;76927.06;5093996;28;20024;-81
2023/04/20 04:04:30;;;;;;;6.40;3.00;;;;;;;-148.88;100.00;76927.06;5092646;28;20031;-81
2023/04/20 04:06:55;;;;;;;6.13;3.05;;;;;;;-148.88;100.00;76931.13;5093789;28;20024;-81
2023/04/20 04:09:20;;;;;;;6.97;3.03;;;;;;;-148.88;100.00;76931.13;5094111;28;20035;-80
2023/04/20 04:11:45;;;;;;;6.25;2.92;;;;;;;-148.88;100.00;76931.13;5093914;28;20028;-81
2023/04/20 04:14:11;;;;;;;7.72;3.47;;;;;;;-148.88;100.00;76937.22;5093729;28;20536;-81
2023/04/20 04:16:36;;;;;;;6.13;3.00;;;;;;;-148.88;100.00;76941.28;5093967;28;20016;-81
2023/04/20 04:19:01;;;;;;;7.70;3.08;;;;;;;-148.88;100.00;76941.28;5096907;28;20019;-81
2023/04/20 04:21:27;;;;;;;7.95;3.15;;;;;;;-148.88;100.00;76943.31;5096017;28;20535;-81
2023/04/20 04:23:53;;;;;;;5.30;2.63;;;;;;;-148.88;100.00;76951.44;5095222;28;20024;-81
2023/04/20 04:26:20;;;;;;;6.22;3.30;;;;;;;-148.88;100.00;76945.34;5093924;28;20028;-81
2023/04/20 04:28:45;;;;;;;7.70;3.13;;;;;;;-148.88;100.00;76955.50;5092968;28;20028;-81
2023/04/20 04:31:11;;;;;;;5.80;3.10;;;;;;;-148.88;100.00;76947.38;5091705;28;20024;-81
2023/04/20 04:33:36;;;;;;;7.13;3.05;;;;;;;-148.88;100.00;76945.34;5091730;28;20397;-81
2023/04/20 04:36:01;;;;;;;7.70;3.30;;;;;;;-148.88;100.00;76947.38;5091537;28;20023;-80
2023/04/20 04:38:27;;;;;;;7.75;3.35;;;;;;;-148.88;100.00;76947.38;5093102;28;20053;-78
2023/04/20 04:40:52;;;;;;;9.57;3.22;;;;;;;-148.88;100.00;76943.31;5093755;28;20047;-79
2023/04/20 04:43:18;;;;;;;8.70;3.50;;;;;;;-148.88;100.00;76959.56;5092205;28;20076;-79
2023/04/20 04:45:44;;;;;;;7.63;3.75;;;;;;;-148.88;100.00;76951.44;5093143;28;20317;-79
2023/04/20 04:48:10;;;;;;;7.60;3.55;;;;;;;-148.88;100.00;76951.44;5094716;28;20032;-80
2023/04/20 04:50:38;;;;;;;8.25;3.42;;;;;;;-148.88;100.00;76947.38;5094458;28;20394;-80
2023/04/20 04:53:04;;;;;;;6.53;3.47;;;;;;;-148.88;100.00;76943.31;5093235;28;20119;-80
2023/04/20 04:55:29;;;;;;;7.30;3.85;;;;;;;-148.88;100.00;76941.28;5095834;28;20048;-80
2023/04/20 04:57:54;;;;;;;10.88;3.10;;;;;;;-148.88;100.00;76951.44;5093831;28;20110;-80
2023/04/20 05:00:21;;;;;;;7.50;3.55;;;;;;;-148.88;100.00;76947.38;5093803;28;20469;-80
2023/04/20 05:02:46;;;;;;;11.00;3.58;;;;;;;-148.88;100.00;76945.34;5092025;28;20028;-80
2023/04/20 05:05:11;;;;;;;12.40;4.38;;;;;;;-148.88;100.00;76945.34;5092576;28;20501;-80
2023/04/20 05:07:37;;;;;;;9.30;3.78;;;;;;;-148.88;100.00;76957.53;5093548;28;20024;-78
2023/04/20 05:10:03;;;;;;;6.15;3.35;;;;;;;-148.88;100.00;76953.47;5094686;28;20028;-80
2023/04/20 05:12:29;;;;;;;7.93;3.58;;;;;;;-148.88;100.00;76943.31;5094170;28;20023;-78
2023/04/20 05:14:54;;;;;;;11.52;4.90;;;;;;;-148.88;100.00;76943.31;5093004;28;20020;-79
2023/04/20 05:17:20;;;;;;;12.05;4.38;;;;;;;-148.88;100.00;76939.25;5092273;28;20111;-79
2023/04/20 05:19:45;;;;;;;9.48;4.82;;;;;;;-148.88;100.00;76910.81;5097098;28;20518;-79
2023/04/20 05:22:10;;;;;;;7.60;3.85;;;;;;;-148.88;100.00;76886.41;5097598;28;20077;-79
2023/04/20 05:24:36;;;;;;;9.55;4.20;;;;;;;-148.88;100.00;76902.69;5098950;28;20108;-79
2023/04/20 05:27:03;;;;;;;9.70;3.75;;;;;;;-148.88;100.00;76927.06;5097030;28;20035;-79
2023/04/20 05:29:28;;;;;;;8.65;4.38;;;;;;;-148.88;100.00;76914.88;5099259;28;20096;-79
2023/04/20 05:31:53;;;;;;;11.63;4.40;;;;;;;-148.88;100.00;76918.94;5099105;28;20062;-79
2023/04/20 05:34:18;;;;;;;7.10;3.72;;;;;;;-148.88;100.00;76927.06;5098819;28;20074;-79
2023/04/20 05:36:45;;;;;;;11.18;4.18;;;;;;;-148.88;100.00;76925.03;5097519;28;20131;-79
2023/04/20 05:39:11;;;;;;;9.27;4.15;;;;;;;-148.88;100.00;76941.28;5097483;28;20421;-78
2023/04/20 05:41:36;;;;;;;8.23;3.78;;;;;;;-148.88;100.00;76920.97;5096431;28;20020;-78
2023/04/20 05:44:01;;;;;;;7.80;3.97;;;;;;;-148.88;100.00;76931.13;5095014;28;20039;-78
2023/04/20 05:46:28;;;;;;;11.15;4.45;;;;;;;-148.88;100.00;76943.31;5096289;28;20080;-78
2023/04/20 05:48:53;;;;;;;11.85;4.85;;;;;;;-148.88;100.00;76927.06;5096582;28;20031;-78
2023/04/20 05:51:19;;;;;;;8.27;3.80;;;;;;;-148.88;100.00;76943.31;5097242;28;20023;-78
2023/04/20 05:53:44;;;;;;;11.05;4.28;;;;;;;-148.88;100.00;76939.25;5095086;28;20154;-78
2023/04/20 05:56:10;;;;;;;11.30;5.28;;;;;;;-148.88;100.00;76947.38;5096709;28;20024;-80
2023/04/20 05:58:36;;;;;;;13.60;4.68;;;;;;;-148.88;100.00;76947.38;5097117;28;20485;-77
2023/04/20 06:01:03;;;;;;;7.18;3.92;;;;;;;-148.88;100.00;76939.25;5097648;28;20024;-78
2023/04/20 06:03:29;;;;;;;10.65;4.82;;;;;;;-148.88;100.00;76933.16;5097843;28;20028;-78
2023/04/20 06:05:54;;;;;;;9.77;4.78;;;;;;;-148.88;100.00;76927.06;5102856;22;20040;-88
2023/04/20 06:08:19;;;;;;;13.45;5.03;;;;;;;-148.88;100.00;76935.19;5094234;28;20444;-87
2023/04/20 06:10:44;;;;;;;12.77;4.75;;;;;;;-148.88;100.00;76931.13;5094069;28;20020;-87
2023/04/20 06:13:10;;;;;;;9.95;4.60;;;;;;;-148.88;100.00;76935.19;5094055;28;20131;-88
2023/04/20 06:15:35;;;;;;;10.52;4.53;;;;;;;-148.88;100.00;76929.09;5094027;28;20023;-87
2023/04/20 06:20:28;;;;;;;10.48;4.65;;;;;;;-148.88;100.00;76923.00;5093421;28;20052;-75
2023/04/20 06:22:53;;;;;;;8.90;4.43;;;;;;;-148.88;100.00;76918.94;5096078;28;20020;-75
2023/04/20 06:25:19;;;;;;;8.70;4.43;;;;;;;-148.88;100.00;76910.81;5078159;28;20051;-75
2023/04/20 06:27:45;;;;;;;12.90;5.10;;;;;;;-148.88;100.00;76906.75;5078122;28;20024;-75
2023/04/20 06:30:11;;;;;;;9.25;4.65;;;;;;;-148.88;100.00;76898.63;5096389;28;20016;-75
2023/04/20 06:32:36;;;;;;;9.75;4.70;;;;;;;-148.88;100.00;76906.75;5095617;28;20384;-75
2023/04/20 06:35:03;;;;;;;8.70;4.45;;;;;;;-148.88;100.00;76910.81;5077536;28;20481;-76
2023/04/20 06:37:28;;;;;;;10.23;4.50;;;;;;;-148.88;100.00;76904.72;5095833;28;20126;-76
2023/04/20 06:39:53;;;;;;;10.55;6.05;;;;;;;-148.88;100.00;76902.69;5095900;28;20032;-75
2023/04/20 06:42:19;;;;;;;11.80;5.05;;;;;;;-148.88;100.00;76906.75;5077467;28;20085;-76
2023/04/20 06:44:45;;;;;;;8.27;4.03;;;;;;;-148.88;100.00;76910.81;5077798;28;20473;-77
2023/04/20 06:47:10;;;;;;;10.40;4.38;;;;;;;-148.88;100.00;76902.69;5095740;28;20020;-77
2023/04/20 06:49:36;;;;;;;9.82;4.38;;;;;;;-148.88;100.00;76902.69;5095744;28;20028;-76
2023/04/20 06:52:02;;;;;;;11.43;5.05;;;;;;;-148.88;100.00;76902.69;5077613;28;20023;-76
2023/04/20 06:54:27;;;;;;;11.75;5.38;;;;;;;-148.88;100.00;76904.72;5077058;28;20024;-76
2023/04/20 06:56:52;;;;;;;10.35;5.18;;;;;;;-148.88;100.00;76902.69;5095470;28;20390;-76
2023/04/20 06:59:18;;;;;;;17.95;7.35;;;;;;;-148.88;100.00;76910.81;5077305;28;20388;-76
2023/04/20 07:01:43;;;;;;;12.15;5.95;;;;;;;-148.88;100.00;76902.69;5095720;28;20067;-76
2023/04/20 07:04:09;;;;;;;11.20;4.80;;;;;;;-148.88;100.00;76880.31;5095565;28;20024;-76
2023/04/20 07:06:34;;;;;;;10.07;4.72;;;;;;;-148.88;100.00;76890.50;5077137;28;20032;-76
2023/04/20 07:08:59;;;;;;;10.70;5.07;;;;;;;-148.88;100.00;76902.69;5095145;28;20020;-77
2023/04/20 07:11:25;;;;;;;9.95;5.35;;;;;;;-148.88;100.00;76892.53;5094671;28;20073;-76
2023/04/20 07:13:50;;;;;;;9.13;4.55;;;;;;;-148.88;100.00;76882.34;5076588;28;20023;-76
2023/04/20 07:16:15;;;;;;;10.30;5.38;;;;;;;-148.88;100.00;76886.41;5094688;28;20054;-76
2023/04/20 07:18:41;;;;;;;9.35;5.95;;;;;;;-148.88;100.00;76878.28;5094466;28;20028;-77
2023/04/20 07:21:06;;;;;;;10.13;5.07;;;;;;;-148.88;100.00;76878.28;5094486;28;20446;-76
2023/04/20 07:23:31;;;;;;;12.65;6.00;;;;;;;-148.88;100.00;76868.13;5094571;28;20035;-76
2023/04/20 07:25:57;;;;;;;10.68;5.80;;;;;;;-148.88;100.00;76866.09;5076338;28;20020;-76
2023/04/20 07:28:22;;;;;;;13.95;6.32;;;;;;;-148.88;100.00;76880.31;5076304;28;20032;-76
2023/04/20 07:30:47;;;;;;;10.45;5.68;;;;;;;-148.88;100.00;76853.91;5076218;28;20119;-77
2023/04/20 07:33:13;;;;;;;16.02;6.30;;;;;;;-148.88;100.00;76853.91;5094369;28;20032;-76
2023/04/20 07:35:39;;;;;;;16.45;6.18;;;;;;;-148.88;100.00;76849.84;5094708;28;20518;-76
2023/04/20 07:38:04;;;;;;;13.10;6.40;;;;;;;-148.88;100.00;76825.47;5094299;28;20032;-77
2023/04/20 07:40:29;;;;;;;10.70;6.07;;;;;;;-148.88;100.00;76809.22;5093760;28;20027;-77
2023/04/20 07:42:55;;;;;;;14.75;6.90;;;;;;;-148.88;100.00;76803.13;5094231;28;20024;-76
2023/04/20 07:45:21;;;;;;;16.77;6.10;;;;;;;-148.88;100.00;76788.91;5094548;28;20106;-76
2023/04/20 07:47:50;;;;;;;9.65;5.50;;;;;;;-148.88;100.00;76790.94;5075897;28;20069;-76
2023/04/20 07:50:15;;;;;;;10.27;5.15;;;;;;;-148.88;100.00;76784.84;5094972;28;20455;-76
2023/04/20 07:52:40;;;;;;;13.05;6.20;;;;;;;-148.88;100.00;76756.41;5094232;28;20525;-77
2023/04/20 07:55:07;;;;;;;11.75;5.95;;;;;;;-148.88;100.00;76742.16;5093935;28;20027;-77
2023/04/20 07:57:33;;;;;;;12.60;5.70;;;;;;;-148.88;100.00;76732.00;5094128;28;20020;-77
2023/04/20 07:59:59;;;;;;;10.15;6.13;;;;;;;-148.88;100.00;76727.94;5094036;28;20547;-76
2023/04/20 08:02:24;;;;;;;13.15;6.35;;;;;;;-148.88;97.84;76740.13;5093797;28;20031;-75
2023/04/20 08:04:49;;;;;;;11.27;6.50;;;;;;;-148.88;98.51;76723.88;5093724;28;20028;-75
2023/04/20 08:07:15;;;;;;;13.27;5.75;;;;;;;-148.88;97.87;76703.56;5093683;28;20103;-75
2023/04/20 08:09:42;;;;;;;11.02;5.85;;;;;;;-148.88;97.80;76685.28;5093978;28;20110;-75
2023/04/20 08:12:08;;;;;;;11.20;5.82;;;;;;;-148.88;97.29;76707.63;5093709;28;20027;-75
2023/04/20 08:14:33;;;;;;;9.85;5.60;;;;;;;-148.88;96.32;76687.31;5075450;28;20072;-75
2023/04/20 08:16:58;;;;;;;14.07;6.25;;;;;;;-148.88;95.55;76660.91;5093585;28;20024;-75
2023/04/20 08:19:24;;;;;;;11.50;5.35;;;;;;;-148.88;95.10;76650.75;5075427;28;20024;-75
2023/04/20 08:21:50;;;;;;;11.43;6.10;;;;;;;-148.88;94.72;76618.25;5093639;28;20031;-75
2023/04/20 08:24:15;;;;;;;11.25;5.95;;;;;;;-148.88;92.87;76610.13;5093447;28;20020;-75
2023/04/20 08:26:42;;;;;;;11.70;5.80;;;;;;;-148.88;92.38;76601.97;5075195;28;20435;-75
2023/04/20 08:29:07;;;;;;;10.55;6.25;;;;;;;-148.88;93.10;76634.50;5093434;28;20024;-75
2023/04/20 08:31:35;;;;;;;9.77;5.88;;;;;;;-148.88;91.68;76638.56;5093841;28;20380;-75
2023/04/20 08:34:01;;;;;;;12.32;5.38;;;;;;;-148.88;92.70;76634.50;5093599;28;20389;-75
2023/04/20 08:36:26;;;;;;;9.25;5.55;;;;;;;-148.88;92.92;76608.09;5093294;28;20526;-75
2023/04/20 08:39:13;;;;;;;13.00;6.15;;;;;;;-148.88;91.84;76620.28;5093240;28;20095;-75
2023/04/20 08:41:40;;;;;;;9.48;5.05;;;;;;;-148.88;91.13;76658.88;5093200;28;20052;-74
2023/04/20 08:44:07;;;;;;;11.07;5.80;;;;;;;-148.88;90.98;76646.69;5093258;28;20024;-75
2023/04/20 08:46:33;;;;;;;10.82;8.68;;;;;;;-148.88;92.16;76646.69;5093192;28;20489;-75
2023/04/20 08:49:01;;;;;;;9.93;5.53;;;;;;;-148.88;91.95;76650.75;5093218;28;20107;-75
2023/04/20 08:51:26;;;;;;;11.38;5.90;;;;;;;-148.88;92.71;76630.44;5093442;28;20020;-75
2023/04/20 08:53:54;;;;;;;9.90;5.93;;;;;;;-148.88;89.56;76606.06;5096012;28;20028;-75
2023/04/20 08:56:30;;;;;;;13.85;5.80;;;;;;;-148.88;88.68;76601.97;5097789;28;20031;-75
2023/04/20 08:58:56;;;;;;;10.55;8.23;;;;;;;-148.88;88.55;76561.34;5079236;28;20484;-75
2023/04/20 09:01:26;;;;;;;10.85;5.65;;;;;;;-148.88;88.10;76545.09;5097747;28;20039;-75
2023/04/20 09:03:52;;;;;;;11.38;5.90;;;;;;;-148.88;89.74;76571.50;5097568;28;20028;-75
2023/04/20 09:06:17;;;;;;;8.63;5.70;;;;;;;-148.88;85.32;76573.53;5097084;28;20076;-75
2023/04/20 09:08:44;;;;;;;10.02;5.95;;;;;;;-148.88;83.99;76545.09;5097143;28;20106;-75
2023/04/20 09:11:24;;;;;;;7.45;4.88;;;;;;;-148.88;80.45;76545.09;5097205;28;20024;-74
2023/04/20 09:14:00;;;;;;;8.10;5.13;;;;;;;-148.88;78.28;76528.84;5096968;28;20020;-75
2023/04/20 09:16:26;;;;;;;7.22;4.97;;;;;;;-148.88;79.63;76504.47;5078794;28;20023;-74
2023/04/20 09:18:53;;;;;;;7.55;5.03;;;;;;;-148.88;77.33;76490.25;5096916;28;20040;-74
2023/04/20 09:21:19;;;;;;;8.52;4.38;;;;;;;-148.88;77.73;76512.59;5078579;28;20035;-74
2023/04/20 09:23:55;;;;;;;9.80;4.68;;;;;;;-148.88;79.46;76520.72;5078659;28;20028;-74
2023/04/20 09:26:20;;;;;;;9.20;4.10;;;;;;;-148.88;78.75;76524.78;5096992;28;20485;-75
2023/04/20 09:28:46;;;;;;;7.28;4.35;;;;;;;-148.88;80.35;76524.78;5078471;28;20036;-75
2023/04/20 09:31:20;;;;;;;7.65;6.55;;;;;;;-148.88;80.74;76488.22;5078377;28;20016;-75
2023/04/20 09:33:56;;;;;;;7.50;4.47;;;;;;;-148.88;80.38;76512.59;5078620;28;20442;-74
2023/04/20 09:36:22;;;;;;;7.63;4.40;;;;;;;-148.88;79.02;76500.41;5096805;28;20028;-74
2023/04/20 09:39:00;;;;;;;7.85;4.10;;;;;;;-148.88;77.07;76520.72;5096770;28;20027;-74
2023/04/20 09:41:26;;;;;;;7.53;6.20;;;;;;;-148.88;79.25;76532.91;5096710;28;20093;-74
2023/04/20 09:43:51;;;;;;;9.10;5.15;;;;;;;-148.88;79.37;76476.03;5096533;28;20024;-74
2023/04/20 09:46:17;;;;;;;7.68;5.00;;;;;;;-148.88;79.22;76480.09;5096267;28;20024;-74
2023/04/20 09:48:42;;;;;;;8.38;6.97;;;;;;;-148.88;78.77;76510.56;5096333;28;20439;-74
2023/04/20 09:51:07;;;;;;;7.90;4.28;;;;;;;-148.88;79.59;76488.22;5077955;28;20020;-74
2023/04/20 09:53:33;;;;;;;8.18;6.95;;;;;;;-148.88;78.82;76443.53;5096409;28;20073;-74
2023/04/20 09:56:00;;;;;;;9.10;4.75;;;;;;;-148.88;77.75;76496.34;5096478;28;20027;-74
2023/04/20 09:58:26;;;;;;;8.52;5.03;;;;;;;-148.88;79.36;76502.44;5096138;28;20024;-74
2023/04/20 10:00:51;;;;;;;7.38;4.75;;;;;;;-148.88;78.52;76478.06;5096007;28;20028;-74
2023/04/20 10:03:20;;;;;;;6.93;4.85;;;;;;;-148.88;79.04;76490.25;5095680;28;20085;-74
2023/04/20 10:05:46;;;;;;;7.80;6.68;;;;;;;-148.88;77.53;76504.47;5095936;28;20028;-74
2023/04/20 10:08:11;;;;;;;7.15;6.45;;;;;;;-148.88;79.24;76500.41;5096123;28;20038;-74
2023/04/20 10:10:50;;;;;;;6.82;4.78;;;;;;;-148.88;79.27;76480.09;5096253;28;20473;-74
2023/04/20 10:13:18;;;;;;;7.97;4.93;;;;;;;-148.88;79.08;76494.31;5096275;28;20024;-74
2023/04/20 10:15:43;;;;;;;7.95;7.07;;;;;;;-148.88;79.28;76478.06;5095843;28;20077;-74
2023/04/20 10:18:23;;;;;;;6.50;4.90;;;;;;;-148.88;78.72;76480.09;5077559;28;20019;-74
2023/04/20 10:20:49;;;;;;;7.47;5.22;;;;;;;-148.88;76.66;76384.59;5096193;28;20026;-74
2023/04/20 10:23:15;;;;;;;8.15;7.35;;;;;;;-148.88;76.39;76366.31;5095612;28;20102;-74
2023/04/20 10:25:41;;;;;;;6.93;6.32;;;;;;;-148.88;75.72;76354.13;5095631;28;20031;-74
2023/04/20 10:28:09;;;;;;;8.52;5.90;;;;;;;-148.88;77.29;76333.81;5095734;28;20028;-74
2023/04/20 10:30:36;;;;;;;7.45;6.63;;;;;;;-148.88;75.33;76321.63;5077499;28;20031;-74
2023/04/20 10:33:11;;;;;;;7.88;7.18;;;;;;;-148.88;72.51;76358.19;5077233;28;20024;-74
2023/04/20 10:35:54;;;;;;;8.07;7.32;;;;;;;-148.88;75.00;76402.88;5095459;28;20020;-74
2023/04/20 10:38:34;;;;;;;8.90;6.15;;;;;;;-148.88;77.53;76417.09;5095340;28;20043;-74
2023/04/20 10:41:10;;;;;;;8.13;7.32;;;;;;;-148.88;77.45;76415.06;5095809;28;20030;-74
2023/04/20 10:43:40;;;;;;;8.65;5.90;;;;;;;-148.88;78.71;76433.38;5095274;28;20020;-74
2023/04/20 10:46:20;;;;;;;8.30;7.50;;;;;;;-148.88;78.77;76417.09;5095922;28;20028;-74
2023/04/20 10:49:02;;;;;;;8.88;7.97;;;;;;;-148.88;77.34;76431.34;5077156;28;20480;-74
2023/04/20 10:51:27;;;;;;;9.68;6.07;;;;;;;-148.88;77.09;76431.34;5076949;28;20036;-74
2023/04/20 10:53:57;;;;;;;9.57;8.68;;;;;;;-148.88;76.40;76408.97;5077014;28;20038;-74
2023/04/20 10:56:22;;;;;;;11.02;7.32;;;;;;;-148.88;77.94;76364.28;5095164;28;20024;-74
2023/04/20 10:58:48;;;;;;;9.93;8.93;;;;;;;-148.88;74.74;76354.13;5095026;28;20370;-74
2023/04/20 11:01:13;;;;;;;10.50;8.85;;;;;;;-148.88;73.53;76358.19;5077194;28;20023;-74
2023/04/20 11:03:38;;;;;;;12.63;8.23;;;;;;;-148.88;74.25;76339.91;5076760;28;20538;-74
2023/04/20 11:06:04;;;;;;;10.50;9.40;;;;;;;-148.88;74.65;76339.91;5095043;28;20415;-74
2023/04/20 11:08:40;;;;;;;8.73;6.32;;;;;;;-148.88;72.62;76319.59;5094784;28;20031;-74
2023/04/20 11:11:17;;;;;;;9.02;8.13;;;;;;;-148.88;70.80;76321.63;5094884;28;20056;-74